Time;durP1;ratioP1;P1;durP2;ratioP2;P2;SDS_P1;SDS_P2;PMS_P1;PMS_P2;Temp;Humidity;BMP_temperature;BMP_pressure;BME280_temperature;BME280_humidity;BME280_pressure;Samples;Min_cycle;Max_cycle;Signal;HPM_P1;HPM_P2
2023/01/22 00:00:59;;;;;;;40.00;17.25;;;;;;;-0.40;100.00;103453.78;5040358;28;20369;-38
2023/01/22 00:03:24;;;;;;;35.35;16.23;;;;;;;-0.39;100.00;103456.41;5052627;28;20476;-37
2023/01/22 00:05:51;;;;;;;38.80;15.05;;;;;;;-0.38;100.00;103451.97;5049610;28;20057;-38
2023/01/22 00:08:17;;;;;;;33.70;14.88;;;;;;;-0.41;100.00;103449.41;5032564;28;20037;-38
2023/01/22 00:10:53;;;;;;;39.75;15.88;;;;;;;-0.47;100.00;103447.81;5032041;28;20021;-38
2023/01/22 00:13:20;;;;;;;37.75;14.57;;;;;;;-0.49;100.00;103450.50;5032048;28;20061;-38
2023/01/22 00:15:45;;;;;;;37.97;15.93;;;;;;;-0.46;100.00;103449.53;5040244;28;20013;-37
2023/01/22 00:18:11;;;;;;;31.52;15.18;;;;;;;-0.35;100.00;103463.31;5031566;28;20030;-39
2023/01/22 00:20:36;;;;;;;38.83;15.43;;;;;;;-0.39;100.00;103461.69;5031519;28;20024;-37
2023/01/22 00:23:01;;;;;;;35.13;15.50;;;;;;;-0.38;100.00;103467.84;5032447;28;20029;-37
2023/01/22 00:25:27;;;;;;;37.53;15.73;;;;;;;-0.40;100.00;103454.63;5031355;28;20061;-37
2023/01/22 00:27:52;;;;;;;37.58;14.98;;;;;;;-0.39;100.00;103459.03;5047220;28;20033;-37
2023/01/22 00:30:18;;;;;;;32.33;14.93;;;;;;;-0.42;100.00;103450.31;5051047;28;20021;-38
2023/01/22 00:32:44;;;;;;;33.10;14.80;;;;;;;-0.36;100.00;103455.44;5032282;28;20037;-39
2023/01/22 00:35:10;;;;;;;35.13;14.30;;;;;;;-0.37;100.00;103448.38;5035130;28;20076;-37
2023/01/22 00:37:35;;;;;;;34.95;13.65;;;;;;;-0.30;100.00;103450.81;5048471;28;20044;-37
2023/01/22 00:40:01;;;;;;;29.95;13.20;;;;;;;-0.29;100.00;103449.91;5052207;28;20028;-39
2023/01/22 00:42:26;;;;;;;30.17;13.70;;;;;;;-0.25;100.00;103448.88;5039296;28;20047;-39
2023/01/22 00:44:52;;;;;;;28.73;12.38;;;;;;;-0.18;100.00;103454.88;5051244;28;20086;-37
2023/01/22 00:47:17;;;;;;;27.77;12.70;;;;;;;-0.08;100.00;103444.84;5044395;28;20037;-39
2023/01/22 00:49:42;;;;;;;24.85;10.90;;;;;;;0.00;100.00;103442.84;5035596;28;20030;-38
2023/01/22 00:52:08;;;;;;;24.25;11.35;;;;;;;0.02;100.00;103440.97;5036360;28;20056;-39
2023/01/22 00:54:33;;;;;;;25.35;12.25;;;;;;;0.09;100.00;103431.06;5038685;28;20117;-38
2023/01/22 00:56:58;;;;;;;27.70;11.40;;;;;;;0.06;100.00;103426.75;5041778;28;20038;-37
2023/01/22 00:59:24;;;;;;;27.48;12.68;;;;;;;0.05;100.00;103410.88;5037318;28;20036;-37
2023/01/22 01:01:49;;;;;;;26.63;11.80;;;;;;;0.01;100.00;103410.13;5037097;28;20091;-39
2023/01/22 01:04:14;;;;;;;25.27;10.95;;;;;;;0.02;100.00;103405.69;5036139;28;20216;-39
2023/01/22 01:06:40;;;;;;;25.58;11.85;;;;;;;-0.02;100.00;103412.88;5038106;28;20108;-38
2023/01/22 01:09:05;;;;;;;20.45;10.77;;;;;;;-0.06;100.00;103406.81;5056423;28;20086;-38
2023/01/22 01:11:30;;;;;;;21.85;11.55;;;;;;;-0.09;100.00;103404.25;5057601;28;20123;-39
2023/01/22 01:13:56;;;;;;;25.60;11.32;;;;;;;-0.16;100.00;103415.97;5056124;28;20025;-39
2023/01/22 01:16:25;;;;;;;25.08;11.95;;;;;;;-0.15;100.00;103407.13;5054957;28;20052;-39
2023/01/22 01:18:51;;;;;;;22.33;11.00;;;;;;;-0.09;100.00;103421.94;5043800;28;20045;-38
2023/01/22 01:21:18;;;;;;;27.73;11.63;;;;;;;0.02;100.00;103419.78;5053247;28;20106;-38
2023/01/22 01:23:43;;;;;;;21.55;11.05;;;;;;;0.06;100.00;103421.44;5037906;28;20021;-38
2023/01/22 01:26:12;;;;;;;26.58;11.77;;;;;;;0.06;100.00;103408.22;5045063;28;20116;-37
2023/01/22 01:28:38;;;;;;;22.38;11.10;;;;;;;0.07;100.00;103411.72;5042071;28;20527;-39
2023/01/22 01:31:05;;;;;;;25.05;10.43;;;;;;;0.16;100.00;103401.69;5037504;28;20030;-38
2023/01/22 01:33:31;;;;;;;18.58;10.30;;;;;;;0.21;100.00;103398.88;5054291;28;20159;-38
2023/01/22 01:36:00;;;;;;;20.65;10.55;;;;;;;0.26;100.00;103404.00;5053244;28;20540;-39
2023/01/22 01:38:26;;;;;;;19.55;10.63;;;;;;;0.28;100.00;103396.88;5040993;28;20462;-38
2023/01/22 01:40:51;;;;;;;19.48;11.00;;;;;;;0.31;100.00;103397.63;5045099;28;20069;-38
2023/01/22 01:43:16;;;;;;;19.10;9.38;;;;;;;0.40;100.00;103400.00;5047295;28;20033;-38
2023/01/22 01:45:42;;;;;;;22.08;10.90;;;;;;;0.43;100.00;103393.72;5043309;28;20043;-38
2023/01/22 01:48:17;;;;;;;22.20;10.75;;;;;;;0.42;100.00;103389.31;5037645;28;20096;-39
2023/01/22 01:50:49;;;;;;;17.38;9.82;;;;;;;0.48;100.00;103397.06;5052152;28;20033;-38
2023/01/22 01:53:15;;;;;;;18.73;9.90;;;;;;;0.50;100.00;103395.25;5034950;28;20116;-38
2023/01/22 01:55:40;;;;;;;23.55;10.32;;;;;;;0.54;100.00;103391.56;5047167;28;20368;-38
2023/01/22 01:58:10;;;;;;;20.02;10.57;;;;;;;0.54;100.00;103388.91;5040814;28;20048;-37
2023/01/22 02:00:37;;;;;;;20.02;10.25;;;;;;;0.59;100.00;103394.03;5039616;28;20064;-37
2023/01/22 02:03:02;;;;;;;21.10;11.43;;;;;;;0.59;100.00;103394.03;5045067;28;20071;-37
2023/01/22 02:05:31;;;;;;;21.30;10.35;;;;;;;0.52;100.00;103382.78;5040231;28;20037;-39
2023/01/22 02:07:56;;;;;;;20.27;10.90;;;;;;;0.56;100.00;103387.06;5039265;28;20033;-38
2023/01/22 02:10:22;;;;;;;16.75;9.88;;;;;;;0.59;100.00;103379.00;5034495;28;20032;-38
2023/01/22 02:12:47;;;;;;;21.35;10.57;;;;;;;0.56;100.00;103376.47;5045607;28;20452;-38
2023/01/22 02:15:13;;;;;;;18.98;9.98;;;;;;;0.61;100.00;103369.22;5051269;28;20468;-38
2023/01/22 02:17:38;;;;;;;18.70;10.18;;;;;;;0.58;100.00;103366.69;5043139;28;20047;-38
2023/01/22 02:20:04;;;;;;;17.33;9.55;;;;;;;0.56;100.00;103357.06;5051967;28;20599;-38
2023/01/22 02:22:31;;;;;;;18.58;10.45;;;;;;;0.54;100.00;103358.88;5052595;28;20071;-38
2023/01/22 02:24:57;;;;;;;20.60;9.63;;;;;;;0.55;100.00;103355.31;5034466;28;20033;-39
2023/01/22 02:27:22;;;;;;;17.05;9.38;;;;;;;0.54;100.00;103354.44;5033896;28;20341;-37
2023/01/22 02:29:48;;;;;;;22.27;10.68;;;;;;;0.54;100.00;103358.88;5038545;28;20056;-38
2023/01/22 02:32:13;;;;;;;17.83;9.13;;;;;;;0.63;100.00;103355.91;5045199;28;20037;-38
2023/01/22 02:34:39;;;;;;;17.88;8.63;;;;;;;0.64;100.00;103355.84;5033456;28;20025;-37
2023/01/22 02:37:04;;;;;;;15.35;8.52;;;;;;;0.54;100.00;103345.66;5050750;28;20043;-38
2023/01/22 02:39:30;;;;;;;19.52;9.63;;;;;;;0.52;100.00;103340.38;5048468;28;20033;-37
2023/01/22 02:41:56;;;;;;;15.27;8.63;;;;;;;0.45;100.00;103338.91;5035068;28;20044;-37
2023/01/22 02:44:21;;;;;;;23.10;9.40;;;;;;;0.43;100.00;103349.53;5042639;28;20037;-38
2023/01/22 02:46:46;;;;;;;15.88;8.98;;;;;;;0.45;100.00;103346.84;5050045;28;20068;-38
2023/01/22 02:49:12;;;;;;;14.23;8.75;;;;;;;0.45;100.00;103338.91;5040950;28;20116;-38
2023/01/22 02:51:37;;;;;;;18.40;9.18;;;;;;;0.46;100.00;103342.41;5032493;28;20111;-39
2023/01/22 02:54:02;;;;;;;21.10;8.52;;;;;;;0.41;100.00;103339.91;5036055;28;20116;-36
2023/01/22 02:56:28;;;;;;;17.50;9.63;;;;;;;0.50;100.00;103347.56;5037166;28;20021;-39
2023/01/22 02:58:53;;;;;;;16.05;8.27;;;;;;;0.48;100.00;103353.81;5040913;28;20056;-40
2023/01/22 03:01:21;;;;;;;14.35;8.15;;;;;;;0.51;100.00;103351.91;5042790;28;20029;-38
2023/01/22 03:03:49;;;;;;;13.55;7.57;;;;;;;0.53;100.00;103351.88;5047360;28;20033;-38
2023/01/22 03:06:15;;;;;;;13.98;7.93;;;;;;;0.52;100.00;103350.97;5048960;28;20087;-38
2023/01/22 03:08:42;;;;;;;16.08;7.97;;;;;;;0.48;100.00;103351.19;5044062;28;20633;-38
2023/01/22 03:11:08;;;;;;;16.33;9.07;;;;;;;0.42;100.00;103344.28;5045429;28;20038;-38
2023/01/22 03:21:46;;;;;;;20.60;8.73;;;;;;;0.49;100.00;103351.09;5042727;28;20043;-39
2023/01/22 03:24:12;;;;;;;16.55;8.48;;;;;;;0.52;100.00;103350.13;5043432;28;20112;-38
2023/01/22 03:26:37;;;;;;;13.30;8.05;;;;;;;0.58;100.00;103350.78;5051951;28;20349;-38
2023/01/22 03:29:02;;;;;;;14.80;8.75;;;;;;;0.51;100.00;103343.97;5051786;28;20480;-38
2023/01/22 03:31:28;;;;;;;15.25;8.80;;;;;;;0.48;100.00;103348.53;5033104;28;20516;-37
2023/01/22 03:33:53;;;;;;;14.18;8.20;;;;;;;0.52;100.00;103345.69;5032373;28;20049;-38
2023/01/22 03:36:18;;;;;;;14.88;8.15;;;;;;;0.53;100.00;103344.78;5032293;28;20112;-39
2023/01/22 03:38:44;;;;;;;15.15;8.90;;;;;;;0.61;100.00;103347.16;5048835;28;20041;-38
2023/01/22 03:41:12;;;;;;;13.68;7.93;;;;;;;0.64;100.00;103339.09;5051472;28;20062;-37
2023/01/22 03:43:37;;;;;;;15.60;8.63;;;;;;;0.68;100.00;103339.84;5051562;28;20461;-39
2023/01/22 03:46:05;;;;;;;18.52;8.57;;;;;;;0.75;100.00;103330.75;5048575;28;20054;-39
2023/01/22 03:48:31;;;;;;;15.23;7.93;;;;;;;0.74;100.00;103334.28;5036684;28;20032;-39
2023/01/22 03:50:56;;;;;;;14.82;8.25;;;;;;;0.75;100.00;103336.03;5043094;28;20056;-38
2023/01/22 03:53:22;;;;;;;11.73;7.75;;;;;;;0.77;100.00;103336.84;5034514;28;20033;-38
2023/01/22 03:55:56;;;;;;;15.88;8.30;;;;;;;0.78;100.00;103347.38;5032872;28;20468;-39
2023/01/22 03:58:21;;;;;;;15.38;8.25;;;;;;;0.82;100.00;103343.72;5034212;28;20472;-39
2023/01/22 04:00:47;;;;;;;12.75;7.10;;;;;;;0.85;100.00;103342.75;5035179;28;20049;-39
2023/01/22 04:03:12;;;;;;;13.85;7.78;;;;;;;0.91;100.00;103331.91;5049831;28;20040;-38
2023/01/22 04:05:38;;;;;;;20.95;7.90;;;;;;;0.90;100.00;103329.31;5032043;28;20036;-38
2023/01/22 04:08:03;;;;;;;12.07;7.13;;;;;;;0.97;100.00;103326.34;5035252;28;20036;-38
2023/01/22 04:10:28;;;;;;;13.90;7.25;;;;;;;1.02;100.00;103323.53;5035373;28;20113;-39
2023/01/22 04:12:54;;;;;;;12.65;6.80;;;;;;;1.02;100.00;103311.13;5033039;28;20045;-38
2023/01/22 04:15:19;;;;;;;10.73;6.85;;;;;;;1.04;100.00;103319.03;5043288;28;20036;-40
2023/01/22 04:17:44;;;;;;;10.05;6.20;;;;;;;1.07;100.00;103314.47;5035727;28;20060;-38
2023/01/22 04:20:10;;;;;;;11.90;6.07;;;;;;;1.08;100.00;103297.66;5047258;28;20049;-38
2023/01/22 04:22:36;;;;;;;11.30;6.53;;;;;;;1.04;100.00;103289.88;5053990;28;20037;-38
2023/01/22 04:25:01;;;;;;;10.40;6.38;;;;;;;0.94;100.00;103293.78;5053962;28;20043;-39
2023/01/22 04:27:26;;;;;;;12.52;7.07;;;;;;;0.93;100.00;103295.59;5051157;28;20071;-38
2023/01/22 04:29:52;;;;;;;13.65;6.68;;;;;;;0.92;100.00;103296.50;5050507;28;21753;-39
2023/01/22 04:32:17;;;;;;;10.52;6.10;;;;;;;0.93;100.00;103297.38;5052378;28;20457;-38
2023/01/22 04:34:43;;;;;;;11.20;6.50;;;;;;;0.89;100.00;103293.97;5051816;28;20792;-38
2023/01/22 04:37:08;;;;;;;12.18;6.25;;;;;;;0.88;100.00;103300.19;5045821;28;20451;-38
2023/01/22 04:39:33;;;;;;;9.68;5.82;;;;;;;0.84;100.00;103294.16;5032702;28;20022;-38
2023/01/22 04:41:59;;;;;;;9.75;6.20;;;;;;;0.82;100.00;103293.34;5031746;28;20052;-38
2023/01/22 04:44:24;;;;;;;10.73;6.00;;;;;;;0.81;100.00;103288.09;5031994;28;20403;-39
2023/01/22 04:46:49;;;;;;;9.55;6.15;;;;;;;0.78;100.00;103293.50;5035726;28;20029;-39
2023/01/22 04:49:15;;;;;;;9.77;5.60;;;;;;;0.70;100.00;103295.59;5038418;28;20371;-37
2023/01/22 04:51:40;;;;;;;12.40;5.75;;;;;;;0.54;100.00;103304.09;5041727;28;20059;-38
2023/01/22 04:54:05;;;;;;;10.75;6.40;;;;;;;0.54;100.00;103298.81;5046961;28;20029;-38
2023/01/22 04:56:30;;;;;;;10.45;6.80;;;;;;;0.48;100.00;103296.38;5046713;28;20045;-39
2023/01/22 04:58:56;;;;;;;13.27;6.57;;;;;;;0.42;100.00;103296.59;5043389;28;20042;-37
2023/01/22 05:01:21;;;;;;;13.88;7.05;;;;;;;0.33;100.00;103294.28;5045134;28;20075;-37
2023/01/22 05:03:46;;;;;;;11.20;6.43;;;;;;;0.27;100.00;103297.16;5050315;28;20091;-39
2023/01/22 05:06:12;;;;;;;12.05;6.90;;;;;;;0.19;100.00;103289.50;5049582;28;20044;-38
2023/01/22 05:08:37;;;;;;;12.10;7.18;;;;;;;0.08;100.00;103292.53;5044451;28;20465;-39
2023/01/22 05:11:03;;;;;;;15.25;7.32;;;;;;;0.01;100.00;103300.72;5033578;28;20118;-38
2023/01/22 05:13:28;;;;;;;16.60;7.63;;;;;;;0.07;100.00;103295.22;5045480;28;20044;-38
2023/01/22 05:15:53;;;;;;;14.80;7.43;;;;;;;0.05;100.00;103302.34;5032670;28;20018;-38
2023/01/22 05:18:19;;;;;;;14.82;7.15;;;;;;;0.01;100.00;103301.59;5036040;28;20037;-38
2023/01/22 05:20:44;;;;;;;12.80;6.82;;;;;;;0.01;100.00;103309.53;5047719;28;20028;-37
2023/01/22 05:23:09;;;;;;;16.15;7.25;;;;;;;0.01;100.00;103309.53;5047362;28;20156;-39
2023/01/22 05:25:35;;;;;;;14.63;7.70;;;;;;;-0.02;100.00;103312.28;5052825;28;20033;-38
2023/01/22 05:28:00;;;;;;;12.90;7.15;;;;;;;-0.01;100.00;103309.56;5046535;28;20048;-39
2023/01/22 05:30:25;;;;;;;17.98;8.20;;;;;;;0.00;100.00;103310.47;5047450;28;20029;-38
2023/01/22 05:32:55;;;;;;;14.20;7.60;;;;;;;-0.02;100.00;103302.56;5049514;28;20112;-38
2023/01/22 05:35:21;;;;;;;16.25;7.47;;;;;;;-0.01;100.00;103303.41;5044442;28;20029;-37
2023/01/22 05:37:46;;;;;;;13.88;7.15;;;;;;;-0.03;100.00;103307.91;5044089;28;20049;-37
2023/01/22 05:40:12;;;;;;;19.30;7.45;;;;;;;0.00;100.00;103310.47;5041344;28;20686;-39
2023/01/22 05:42:37;;;;;;;15.23;7.75;;;;;;;0.08;100.00;103316.34;5040964;28;20062;-38
2023/01/22 05:45:03;;;;;;;13.23;7.18;;;;;;;0.02;100.00;103308.59;5044778;28;20036;-39
2023/01/22 05:47:29;;;;;;;13.15;7.20;;;;;;;0.01;100.00;103304.25;5062156;28;20032;-38
2023/01/22 05:49:54;;;;;;;13.60;7.22;;;;;;;0.06;100.00;103312.03;5045124;28;20040;-37
2023/01/22 05:52:19;;;;;;;15.38;7.28;;;;;;;0.05;100.00;103319.09;5039117;28;20041;-37
2023/01/22 05:54:45;;;;;;;16.73;7.88;;;;;;;0.04;100.00;103316.50;5036681;28;20472;-37
2023/01/22 05:57:10;;;;;;;19.42;7.35;;;;;;;0.07;100.00;103319.91;5033961;28;20088;-38
2023/01/22 05:59:36;;;;;;;13.88;7.50;;;;;;;0.09;100.00;103314.56;5050602;28;20032;-39
2023/01/22 06:02:01;;;;;;;14.50;7.57;;;;;;;0.07;100.00;103311.97;5042870;28;20032;-37
2023/01/22 06:04:27;;;;;;;15.82;7.30;;;;;;;0.04;100.00;103314.72;5046270;28;20520;-37
2023/01/22 06:06:53;;;;;;;17.15;8.10;;;;;;;0.03;100.00;103318.28;5055523;28;20112;-37
2023/01/22 06:09:18;;;;;;;17.55;7.15;;;;;;;0.06;100.00;103320.84;5049491;28;20040;-39
2023/01/22 06:11:43;;;;;;;15.93;7.22;;;;;;;0.08;100.00;103326.06;5055780;28;20061;-38
2023/01/22 06:14:09;;;;;;;15.07;7.80;;;;;;;0.10;100.00;103326.88;5055038;28;20025;-39
2023/01/22 06:16:34;;;;;;;13.48;6.90;;;;;;;0.13;100.00;103327.66;5053823;28;20104;-38
2023/01/22 06:19:00;;;;;;;15.57;7.40;;;;;;;0.06;100.00;103323.47;5039962;28;20064;-39
2023/01/22 06:21:25;;;;;;;16.98;8.00;;;;;;;0.11;100.00;103329.47;5042550;28;20029;-39
2023/01/22 06:23:50;;;;;;;17.42;7.95;;;;;;;0.13;100.00;103326.75;5032467;28;20615;-39
2023/01/22 06:26:16;;;;;;;19.35;8.15;;;;;;;0.24;100.00;103329.94;5037460;28;20546;-38
2023/01/22 06:28:41;;;;;;;16.75;7.70;;;;;;;0.29;100.00;103327.97;5049369;28;20092;-39
2023/01/22 06:31:06;;;;;;;13.80;7.68;;;;;;;0.36;100.00;103325.97;5038936;28;20064;-39
2023/01/22 06:33:33;;;;;;;12.82;7.75;;;;;;;0.44;100.00;103321.25;5033372;28;20025;-38
2023/01/22 06:35:59;;;;;;;14.10;7.32;;;;;;;0.44;100.00;103322.13;5032193;28;20022;-39
2023/01/22 06:38:24;;;;;;;14.48;7.50;;;;;;;0.42;100.00;103317.78;5033937;28;20126;-37
2023/01/22 06:40:54;;;;;;;20.05;8.40;;;;;;;0.50;100.00;103314.88;5034066;28;20037;-39
2023/01/22 06:43:19;;;;;;;16.35;7.97;;;;;;;0.46;100.00;103324.72;5032356;28;20496;-39
2023/01/22 06:45:44;;;;;;;15.73;7.30;;;;;;;0.47;100.00;103318.50;5032709;28;20040;-38
2023/01/22 06:48:10;;;;;;;16.85;7.93;;;;;;;0.47;100.00;103321.13;5035240;28;20464;-38
2023/01/22 06:50:35;;;;;;;15.82;9.57;;;;;;;0.53;100.00;103318.28;5044977;28;20410;-38
2023/01/22 06:53:00;;;;;;;16.65;8.98;;;;;;;0.57;100.00;103321.69;5040341;28;20038;-39
2023/01/22 06:55:26;;;;;;;18.20;9.32;;;;;;;0.58;100.00;103319.00;5046932;28;20524;-39
2023/01/22 06:57:54;;;;;;;18.35;8.50;;;;;;;0.58;100.00;103324.28;5043203;28;20029;-39
2023/01/22 07:00:20;;;;;;;15.95;8.43;;;;;;;0.69;100.00;103336.28;5039482;28;20460;-38
2023/01/22 07:02:46;;;;;;;20.60;8.57;;;;;;;0.69;100.00;103330.97;5040526;28;20107;-38
2023/01/22 07:05:11;;;;;;;17.45;9.52;;;;;;;0.70;100.00;103327.41;5034815;28;20029;-39
2023/01/22 07:07:36;;;;;;;22.33;9.35;;;;;;;0.67;100.00;103324.88;5040861;28;20030;-39
2023/01/22 07:10:02;;;;;;;17.02;8.52;;;;;;;0.77;100.00;103329.78;5047503;28;20329;-39
2023/01/22 07:12:27;;;;;;;15.63;8.60;;;;;;;0.78;100.00;103325.31;5044048;28;20503;-38
2023/01/22 07:14:53;;;;;;;22.02;8.43;;;;;;;0.79;100.00;103329.69;5030923;28;20075;-40
2023/01/22 07:17:18;;;;;;;15.25;7.72;;;;;;;0.87;100.00;103335.59;5041447;28;20488;-38
2023/01/22 07:19:43;;;;;;;18.83;7.38;;;;;;;0.84;100.00;103335.69;5044088;28;20458;-37
2023/01/22 07:22:09;;;;;;;19.40;7.70;;;;;;;0.87;100.00;103340.91;5044869;28;20511;-38
2023/01/22 07:24:34;;;;;;;18.10;8.10;;;;;;;0.88;100.00;103342.63;5036297;28;20481;-38
2023/01/22 07:27:00;;;;;;;14.52;7.47;;;;;;;0.91;100.00;103342.50;5029719;28;20439;-39
2023/01/22 07:29:26;;;;;;;17.33;7.20;;;;;;;0.92;100.00;103341.56;5036189;28;20085;-40
2023/01/22 07:31:51;;;;;;;15.02;6.95;;;;;;;0.98;100.00;103349.31;5045792;28;20029;-39
2023/01/22 07:34:16;;;;;;;14.13;7.55;;;;;;;0.97;100.00;103347.56;5048877;28;20405;-38
2023/01/22 07:36:41;;;;;;;14.20;7.40;;;;;;;0.94;100.00;103345.03;5042758;28;20067;-38
2023/01/22 07:39:07;;;;;;;22.38;8.63;;;;;;;0.96;100.00;103350.28;5044480;28;20056;-38
2023/01/22 07:41:32;;;;;;;19.65;7.13;;;;;;;0.99;100.00;103344.88;5045092;28;20048;-39
2023/01/22 07:43:59;;;;;;;13.65;7.47;;;;;;;0.94;100.00;103347.69;5039375;28;20064;-39
2023/01/22 07:46:25;;;;;;;19.00;6.82;;;;;;;1.03;100.00;103347.34;5050341;28;20033;-38
2023/01/22 07:48:50;;;;;;;19.30;7.45;;;;;;;1.00;100.00;103350.13;5043556;28;20037;-38
2023/01/22 07:51:16;;;;;;;14.13;6.18;;;;;;;1.02;100.00;103353.56;5034285;28;20025;-38
2023/01/22 07:53:42;;;;;;;14.32;6.30;;;;;;;1.02;100.00;103366.81;5046656;28;20092;-39
2023/01/22 07:56:07;;;;;;;11.38;6.55;;;;;;;1.09;100.00;103362.16;5044535;28;20033;-39
2023/01/22 07:58:33;;;;;;;12.90;6.28;;;;;;;1.11;100.00;103365.63;5046149;28;20032;-38
2023/01/22 08:00:59;;;;;;;12.88;6.30;;;;;;;1.11;100.00;103360.31;5048438;28;20036;-40
2023/01/22 08:03:24;;;;;;;16.98;6.72;;;;;;;1.09;100.00;103360.38;5047144;28;20029;-39
2023/01/22 08:05:49;;;;;;;15.27;6.38;;;;;;;1.13;100.00;103357.59;5046429;28;20059;-39
2023/01/22 08:08:17;;;;;;;17.33;6.80;;;;;;;1.12;100.00;103361.19;5044093;28;20234;-38
2023/01/22 08:10:43;;;;;;;20.20;6.57;;;;;;;1.10;100.00;103361.22;5038436;28;20025;-38
2023/01/22 08:13:09;;;;;;;14.45;6.07;;;;;;;1.17;100.00;103367.19;5035031;28;20468;-39
2023/01/22 08:15:34;;;;;;;10.45;5.88;;;;;;;1.14;100.00;103368.16;5033582;28;20069;-39
2023/01/22 08:18:00;;;;;;;14.95;6.20;;;;;;;1.16;100.00;103371.63;5033886;28;20108;-37
2023/01/22 08:20:25;;;;;;;14.05;5.40;;;;;;;1.16;100.00;103368.06;5063758;28;20055;-38
2023/01/22 08:22:55;;;;;;;13.30;5.85;;;;;;;1.18;100.00;103371.53;5064097;28;20106;-38
2023/01/22 08:25:20;;;;;;;15.25;5.93;;;;;;;1.23;100.00;103361.63;5049758;28;20029;-38
2023/01/22 08:27:46;;;;;;;14.00;6.18;;;;;;;1.22;100.00;103360.75;5043957;28;20044;-38
2023/01/22 08:30:11;;;;;;;13.43;5.30;;;;;;;1.26;100.00;103348.22;5067078;28;20020;-39
2023/01/22 08:32:40;;;;;;;11.60;5.80;;;;;;;1.23;100.00;103358.97;5067219;28;20025;-38
2023/01/22 08:35:05;;;;;;;;;;;;;;;1.27;100.00;103357.94;5040796;28;20128;-39
2023/01/22 08:37:30;;;;;;;8.73;5.15;;;;;;;1.28;100.00;103364.97;5031086;28;19984;-39
2023/01/22 08:39:56;;;;;;;12.82;5.82;;;;;;;1.31;100.00;103364.84;5049730;28;20048;-40
2023/01/22 08:42:21;;;;;;;17.00;6.00;;;;;;;1.28;100.00;103372.91;5041852;28;20038;-39
2023/01/22 08:44:46;;;;;;;9.80;5.35;;;;;;;1.33;100.00;103370.97;5034197;28;20246;-39
2023/01/22 08:47:12;;;;;;;13.00;5.43;;;;;;;1.35;100.00;103374.44;5036986;28;20057;-38
2023/01/22 08:49:37;;;;;;;15.07;5.18;;;;;;;1.41;100.00;103382.13;5033921;28;20071;-39
2023/01/22 08:52:02;;;;;;;16.65;6.00;;;;;;;1.39;100.00;103385.78;5049045;28;20323;-38
2023/01/22 08:54:28;;;;;;;9.93;5.90;;;;;;;1.34;100.00;103379.78;5042809;28;20432;-38
2023/01/22 08:56:53;;;;;;;12.45;5.90;;;;;;;1.38;100.00;103373.44;5034676;28;20042;-38
2023/01/22 08:59:19;;;;;;;9.02;5.07;;;;;;;1.44;100.00;103374.03;5033089;28;20033;-39
2023/01/22 09:01:44;;;;;;;13.60;6.20;;;;;;;1.43;100.00;103372.34;5042757;28;20029;-38
2023/01/22 09:04:10;;;;;;;14.30;6.13;;;;;;;1.49;100.00;103364.13;5039685;28;20030;-39
2023/01/22 09:06:36;;;;;;;11.50;5.75;;;;;;;1.49;100.00;103382.69;5042960;28;20107;-37
2023/01/22 09:09:02;;;;;;;12.48;5.57;;;;;;;1.46;100.00;103374.84;5045329;28;20124;-40
2023/01/22 09:11:28;;;;;;;15.20;5.38;;;;;;;1.43;100.00;103372.34;5048943;28;20151;-39
2023/01/22 09:13:55;;;;;;;20.25;6.05;;;;;;;1.45;100.00;103374.91;5044951;28;20092;-39
2023/01/22 09:16:24;;;;;;;10.93;5.73;;;;;;;1.45;100.00;103370.50;5042000;28;20025;-37
2023/01/22 09:18:49;;;;;;;11.75;5.80;;;;;;;1.43;100.00;103364.38;5036105;28;20035;-39
2023/01/22 09:21:15;;;;;;;8.88;5.88;;;;;;;1.44;100.00;103379.34;5045975;28;20029;-39
2023/01/22 09:23:40;;;;;;;11.65;5.53;;;;;;;1.48;100.00;103375.66;5040967;28;20107;-38
2023/01/22 09:26:05;;;;;;;10.18;5.72;;;;;;;1.56;100.00;103385.13;5046367;28;20030;-39
2023/01/22 09:28:31;;;;;;;15.05;6.15;;;;;;;1.50;100.00;103371.16;5034568;28;20059;-39
2023/01/22 09:30:56;;;;;;;12.60;5.80;;;;;;;1.53;100.00;103389.63;5033636;28;20044;-39
2023/01/22 09:33:22;;;;;;;13.38;5.88;;;;;;;1.62;100.00;103383.06;5039539;28;20053;-39
2023/01/22 09:35:47;;;;;;;12.75;6.10;;;;;;;1.65;100.00;103390.06;5045401;28;20463;-38
2023/01/22 09:38:13;;;;;;;16.60;6.25;;;;;;;1.69;100.00;103381.91;5037029;28;20253;-37
2023/01/22 09:40:45;;;;;;;12.77;6.10;;;;;;;1.68;100.00;103387.28;5040695;28;20040;-39
2023/01/22 09:43:24;;;;;;;13.75;6.50;;;;;;;1.67;100.00;103385.56;5033350;28;20024;-39
2023/01/22 09:45:55;;;;;;;13.52;6.25;;;;;;;1.60;100.00;103381.41;5044704;28;20568;-37
2023/01/22 09:48:21;;;;;;;17.88;8.00;;;;;;;1.59;100.00;103390.31;5040640;28;20029;-38
2023/01/22 09:50:47;;;;;;;17.25;6.88;;;;;;;1.56;100.00;103395.75;5049099;28;20025;-39
2023/01/22 09:53:15;;;;;;;21.27;7.50;;;;;;;1.58;100.00;103402.72;5047583;28;20036;-39
2023/01/22 09:55:43;;;;;;;12.93;7.70;;;;;;;1.59;100.00;103411.53;5037311;28;20093;-39
2023/01/22 09:58:16;;;;;;;15.00;6.38;;;;;;;1.60;100.00;103405.28;5037111;28;20416;-38
2023/01/22 10:01:00;;;;;;;9.65;6.55;;;;;;;1.62;100.00;103411.41;5035367;28;20519;-40
2023/01/22 10:03:32;;;;;;;18.25;8.15;;;;;;;1.65;100.00;103403.31;5033392;28;20079;-38
2023/01/22 10:06:06;;;;;;;12.75;6.18;;;;;;;1.68;100.00;103405.84;5031179;28;20030;-38
2023/01/22 10:08:33;;;;;;;16.23;6.30;;;;;;;1.69;100.00;103411.13;5032773;28;20431;-38
2023/01/22 10:10:59;;;;;;;13.90;6.15;;;;;;;1.70;100.00;103406.66;5032826;28;20033;-39
2023/01/22 10:13:31;;;;;;;11.25;6.30;;;;;;;1.70;100.00;103407.53;5051854;28;20037;-39
2023/01/22 10:15:56;;;;;;;10.05;6.07;;;;;;;1.73;100.00;103403.88;5053471;28;20048;-38
2023/01/22 10:18:52;;;;;;;16.60;6.22;;;;;;;1.73;100.00;103401.22;5053726;28;20412;-38
2023/01/22 10:21:19;;;;;;;15.35;6.65;;;;;;;1.79;100.00;103405.41;5052569;28;20025;-38
2023/01/22 10:23:47;;;;;;;12.53;6.17;;;;;;;1.79;100.00;103403.66;5050790;28;20075;-40
2023/01/22 10:26:17;;;;;;;14.77;6.18;;;;;;;1.75;100.00;103400.25;5049567;28;20040;-38
2023/01/22 10:28:44;;;;;;;16.13;8.02;;;;;;;1.75;100.00;103405.56;5052201;28;20044;-38
2023/01/22 10:31:23;;;;;;;20.10;7.00;;;;;;;1.67;100.00;103406.78;5050663;28;20032;-38
2023/01/22 10:33:57;;;;;;;14.45;6.85;;;;;;;1.62;100.00;103398.16;5051090;28;20374;-38
2023/01/22 10:36:23;;;;;;;14.48;6.68;;;;;;;1.68;100.00;103392.59;5051842;28;20033;-38
2023/01/22 10:38:48;;;;;;;11.52;6.07;;;;;;;1.66;100.00;103391.78;5051759;28;20121;-39
2023/01/22 10:41:17;;;;;;;15.65;7.50;;;;;;;1.73;100.00;103393.25;5052395;28;20507;-39
2023/01/22 10:43:42;;;;;;;15.70;5.93;;;;;;;1.75;100.00;103394.94;5070401;28;20074;-39
2023/01/22 10:46:21;;;;;;;12.18;7.03;;;;;;;1.74;100.00;103393.22;5058557;28;20032;-39
2023/01/22 10:49:04;;;;;;;16.77;7.10;;;;;;;1.78;100.00;103390.44;5053204;28;20458;-39
2023/01/22 10:51:42;;;;;;;20.73;7.30;;;;;;;1.77;100.00;103381.59;5063121;28;20029;-38
2023/01/22 10:54:18;;;;;;;17.08;6.63;;;;;;;1.82;100.00;103376.97;5052594;28;20491;-39
2023/01/22 10:56:44;;;;;;;12.27;6.53;;;;;;;1.85;100.00;103384.81;5051311;28;20025;-39
2023/01/22 10:59:21;;;;;;;17.38;6.40;;;;;;;1.93;100.00;103371.22;5052185;28;20116;-40
2023/01/22 11:01:48;;;;;;;13.98;7.18;;;;;;;1.97;100.00;103379.00;5051680;28;20025;-39
2023/01/22 11:04:20;;;;;;;15.48;8.02;;;;;;;2.04;100.00;103371.63;5051471;28;20040;-38
2023/01/22 11:06:55;;;;;;;13.10;7.05;;;;;;;2.10;100.00;103367.84;5051911;28;20388;-38
2023/01/22 11:09:46;;;;;;;13.13;7.13;;;;;;;2.16;100.00;103372.91;5052016;28;20040;-38
2023/01/22 11:12:23;;;;;;;15.57;7.05;;;;;;;2.20;100.00;103369.19;5032790;28;20037;-38
2023/01/22 11:15:10;;;;;;;13.65;7.13;;;;;;;2.22;100.00;103367.34;5031613;28;20029;-38
2023/01/22 11:17:38;;;;;;;16.15;7.65;;;;;;;2.35;100.00;103371.19;5031032;28;20021;-38
2023/01/22 11:20:13;;;;;;;13.30;7.00;;;;;;;2.49;100.00;103357.28;5031848;28;20384;-39